Terminal Aerodrome Forecast
Issued by NWS

Home | Current Version | Previous Version | Text Only | Print | Product List | Glossary On
Versions: 1 2 3 4 5 6 7 8 9 10 11 12 13 14 15 16 17
100
FTUS41 KAKQ 231128
TAFPHF
TAF
KPHF 231128Z 2312/2412 13003KT 2SM BR BKN002
      TEMPO 2312/2313 1/4SM FG VV001
     FM231300 15007KT P6SM SCT040 BKN250
     FM231700 15012KT P6SM SCT060 BKN250
     FM232000 15012G20KT P6SM BKN050
     FM240600 17014G22KT 4SM SHRA OVC030=

USA.gov is the U.S. government's official web portal to all federal, state and local government web resources and services.